Time;durP1;ratioP1;P1;durP2;ratioP2;P2;SDS_P1;SDS_P2;PMS_P1;PMS_P2;Temp;Humidity;BMP_temperature;BMP_pressure;BME280_temperature;BME280_humidity;BME280_pressure;Samples;Min_cycle;Max_cycle;Signal;HPM_P1;HPM_P2
2023/06/10 00:02:23;;;;;;;2.28;1.90;;;;;;;9.31;100.00;100596.00;5060940;28;20137;-57
2023/06/10 00:04:54;;;;;;;1.95;1.80;;;;;;;9.27;100.00;100591.66;5050993;28;20071;-57
2023/06/10 00:07:25;;;;;;;2.95;1.65;;;;;;;9.28;100.00;100598.59;5061990;28;20070;-58
2023/06/10 00:09:55;;;;;;;3.17;1.67;;;;;;;9.26;100.00;100597.72;5051137;28;20048;-59
2023/06/10 00:12:28;;;;;;;2.88;2.20;;;;;;;9.31;100.00;100596.00;5060860;28;20425;-59
2023/06/10 00:15:01;;;;;;;2.20;2.00;;;;;;;9.39;100.00;100609.84;5049964;28;20729;-58
2023/06/10 00:17:32;;;;;;;2.50;1.90;;;;;;;9.43;100.00;100608.91;5054880;28;20233;-57
2023/06/10 00:20:07;;;;;;;2.35;1.85;;;;;;;9.47;100.00;100599.34;5060659;28;20529;-57
2023/06/10 00:22:39;;;;;;;2.10;1.70;;;;;;;9.53;100.00;100606.25;5050217;28;20385;-56
2023/06/10 00:25:10;;;;;;;2.13;1.80;;;;;;;9.53;100.00;100608.88;5061584;28;20055;-55
2023/06/10 00:27:41;;;;;;;1.60;1.50;;;;;;;9.58;100.00;100609.72;5049887;28;20346;-58
2023/06/10 00:30:14;;;;;;;1.95;1.75;;;;;;;9.57;100.00;100613.22;5060888;28;20552;-59
2023/06/10 00:32:45;;;;;;;1.90;1.70;;;;;;;9.59;100.00;100616.69;5049999;28;20067;-57
2023/06/10 00:35:16;;;;;;;2.83;1.77;;;;;;;9.63;100.00;100608.78;5060695;28;20059;-57
2023/06/10 00:37:46;;;;;;;1.95;1.58;;;;;;;9.56;100.00;100601.03;5050395;28;20060;-59
2023/06/10 00:40:17;;;;;;;1.70;1.60;;;;;;;9.56;100.00;100611.47;5061421;28;20044;-58
2023/06/10 00:42:48;;;;;;;1.67;1.30;;;;;;;9.53;100.00;100596.69;5050436;28;20559;-59
2023/06/10 00:45:20;;;;;;;5.10;1.73;;;;;;;9.54;100.00;100597.59;5061372;28;20052;-58
2023/06/10 00:47:51;;;;;;;2.17;1.67;;;;;;;9.52;100.00;100594.97;5049523;28;20503;-57
2023/06/10 00:50:22;;;;;;;1.85;1.55;;;;;;;9.49;100.00;100595.84;5060232;28;20802;-58
2023/06/10 00:52:52;;;;;;;1.90;1.70;;;;;;;9.46;100.00;100595.88;5049808;28;20049;-60
2023/06/10 00:55:27;;;;;;;1.80;1.50;;;;;;;9.49;100.00;100601.06;5060529;28;20052;-58
2023/06/10 00:57:57;;;;;;;2.83;1.40;;;;;;;9.58;100.00;100599.28;5049817;28;20048;-58
2023/06/10 01:00:29;;;;;;;3.78;1.60;;;;;;;9.62;100.00;100614.03;5059759;28;20063;-58
2023/06/10 01:03:00;;;;;;;1.80;1.50;;;;;;;9.59;100.00;100606.25;5049005;28;20092;-59
2023/06/10 01:05:31;;;;;;;2.00;1.70;;;;;;;9.55;100.00;100604.50;5054044;28;20077;-58
2023/06/10 01:08:10;;;;;;;2.08;1.60;;;;;;;9.48;100.00;100599.34;5058310;28;20055;-58
2023/06/10 01:10:45;;;;;;;1.80;1.48;;;;;;;9.58;100.00;100601.88;5043789;28;20086;-59
2023/06/10 01:13:17;;;;;;;3.72;1.80;;;;;;;9.60;100.00;100600.13;5052285;28;20433;-58
2023/06/10 01:15:50;;;;;;;1.80;1.70;;;;;;;9.61;100.00;100604.47;5040722;28;20164;-57
2023/06/10 01:18:25;;;;;;;8.52;1.20;;;;;;;9.63;100.00;100603.56;5055358;28;20125;-63
2023/06/10 01:20:57;;;;;;;4.22;1.33;;;;;;;9.60;100.00;100602.75;5042636;28;20722;-58
2023/06/10 01:23:29;;;;;;;1.60;1.50;;;;;;;9.61;100.00;100596.63;5058301;28;20055;-59
2023/06/10 01:26:05;;;;;;;1.67;1.38;;;;;;;9.57;100.00;100592.34;5046932;28;20052;-57
2023/06/10 01:28:43;;;;;;;2.53;1.83;;;;;;;9.54;100.00;100571.50;5047717;28;20044;-58
2023/06/10 01:31:22;;;;;;;1.90;1.70;;;;;;;9.73;100.00;100593.94;5055992;28;20056;-59
2023/06/10 01:33:54;;;;;;;1.40;1.30;;;;;;;9.80;100.00;100589.53;5047925;28;20063;-58
2023/06/10 01:36:26;;;;;;;2.30;1.60;;;;;;;9.91;100.00;100593.81;5059521;28;20044;-57
2023/06/10 01:39:01;;;;;;;4.63;1.70;;;;;;;9.89;100.00;100582.50;5029580;28;20052;-58
2023/06/10 01:41:32;;;;;;;2.42;1.90;;;;;;;9.93;100.00;100596.38;5032886;28;20110;-57
2023/06/10 01:44:03;;;;;;;5.53;1.90;;;;;;;9.86;100.00;100589.47;5045153;28;20132;-58
2023/06/10 01:46:33;;;;;;;2.30;1.77;;;;;;;9.63;100.00;100571.41;5048677;28;20113;-57
2023/06/10 01:49:04;;;;;;;1.98;1.77;;;;;;;9.76;100.00;100588.72;5059988;28;20040;-59
2023/06/10 01:51:36;;;;;;;2.28;1.88;;;;;;;9.77;100.00;100587.81;5049236;28;20055;-58
2023/06/10 01:54:08;;;;;;;3.22;1.70;;;;;;;9.75;100.00;100589.56;5059762;28;20044;-57
2023/06/10 01:56:38;;;;;;;1.73;1.63;;;;;;;9.75;100.00;100602.63;5049826;28;20105;-58
2023/06/10 01:59:09;;;;;;;1.70;1.60;;;;;;;9.82;100.00;100588.66;5059416;28;20458;-56
2023/06/10 02:01:40;;;;;;;1.88;1.52;;;;;;;9.89;100.00;100589.47;5049137;28;20287;-59
2023/06/10 02:04:10;;;;;;;2.47;1.58;;;;;;;9.91;100.00;100583.38;5060070;28;20105;-58
2023/06/10 02:06:41;;;;;;;4.28;1.60;;;;;;;9.91;100.00;100578.16;5048941;28;20132;-57
2023/06/10 02:09:18;;;;;;;1.90;1.42;;;;;;;9.92;100.00;100579.88;5059052;28;20051;-56
2023/06/10 02:11:48;;;;;;;2.08;1.65;;;;;;;9.98;100.00;100584.16;5048752;28;20040;-59
2023/06/10 02:14:19;;;;;;;3.92;1.77;;;;;;;10.00;100.00;100581.56;5056664;28;20157;-57
2023/06/10 02:16:51;;;;;;;2.65;1.67;;;;;;;10.04;100.00;100580.66;5047828;28;20117;-56
2023/06/10 02:19:21;;;;;;;2.40;1.75;;;;;;;10.08;100.00;100580.63;5059383;28;20066;-58
2023/06/10 02:21:52;;;;;;;1.52;1.20;;;;;;;10.12;100.00;100573.59;5024393;28;20675;-58
2023/06/10 02:24:24;;;;;;;1.50;1.40;;;;;;;10.13;100.00;100577.94;5045395;28;20056;-56
2023/06/10 02:26:55;;;;;;;2.25;1.60;;;;;;;10.12;100.00;100571.00;5047904;28;20132;-58
2023/06/10 02:29:26;;;;;;;2.75;1.60;;;;;;;10.14;100.00;100574.47;5058695;28;20055;-58
2023/06/10 02:31:56;;;;;;;1.88;1.60;;;;;;;10.02;100.00;100543.25;5048019;28;20055;-59
2023/06/10 02:34:27;;;;;;;2.70;1.70;;;;;;;10.14;100.00;100548.34;5058784;28;20446;-59
2023/06/10 02:36:57;;;;;;;1.67;1.38;;;;;;;10.19;100.00;100559.63;5045239;28;20110;-57
2023/06/10 02:39:30;;;;;;;1.77;1.40;;;;;;;10.29;100.00;100544.75;5058315;28;20043;-58
2023/06/10 02:42:00;;;;;;;2.00;1.50;;;;;;;10.29;100.00;100548.22;5047761;28;20517;-58
2023/06/10 02:44:31;;;;;;;1.63;1.30;;;;;;;10.40;100.00;100547.22;5052306;28;20052;-56
2023/06/10 02:47:02;;;;;;;2.42;1.60;;;;;;;10.50;100.00;100541.03;5058566;28;20075;-58
2023/06/10 02:49:32;;;;;;;3.15;1.30;;;;;;;10.62;100.00;100530.44;5047070;28;20055;-59
2023/06/10 02:52:03;;;;;;;1.75;1.63;;;;;;;10.70;100.00;100523.34;5057667;28;20044;-57
2023/06/10 02:54:35;;;;;;;1.40;1.17;;;;;;;10.76;100.00;100518.06;5045023;28;20051;-58
2023/06/10 02:57:07;;;;;;;1.60;1.50;;;;;;;10.92;100.00;100523.06;5058387;28;20052;-57
2023/06/10 02:59:38;;;;;;;1.65;1.30;;;;;;;10.92;100.00;100517.84;5047304;28;20060;-58
2023/06/10 03:02:08;;;;;;;1.98;1.20;;;;;;;10.83;100.00;100491.81;5057902;28;20143;-58
2023/06/10 03:04:40;;;;;;;1.63;1.20;;;;;;;10.93;100.00;100520.44;5047595;28;20056;-57
2023/06/10 03:07:15;;;;;;;1.52;1.25;;;;;;;10.75;100.00;100479.72;5058910;28;20105;-58
2023/06/10 03:09:49;;;;;;;1.20;1.00;;;;;;;11.04;100.00;100516.81;5020972;28;20059;-58
2023/06/10 03:12:20;;;;;;;4.43;1.33;;;;;;;11.04;100.00;100516.81;5054864;28;20048;-56
2023/06/10 03:14:51;;;;;;;2.65;1.15;;;;;;;11.12;100.00;100534.13;5047340;28;20073;-58
2023/06/10 03:17:22;;;;;;;1.35;1.10;;;;;;;11.18;100.00;100528.81;5057745;28;20064;-59
2023/06/10 03:19:53;;;;;;;1.20;1.10;;;;;;;11.06;100.00;100515.03;5048033;28;20106;-58
2023/06/10 03:22:23;;;;;;;2.38;1.13;;;;;;;11.03;100.00;100526.38;5058513;28;20075;-57
2023/06/10 03:24:59;;;;;;;2.38;0.95;;;;;;;11.01;100.00;100522.97;5049086;28;20055;-59
2023/06/10 03:27:30;;;;;;;1.27;1.17;;;;;;;10.94;100.00;100521.31;5056677;28;20094;-58
2023/06/10 03:30:00;;;;;;;1.50;1.40;;;;;;;10.91;100.00;100526.59;5044016;28;20101;-57
2023/06/10 03:32:31;;;;;;;3.45;1.20;;;;;;;10.79;100.00;100518.00;5055205;28;20453;-56
2023/06/10 03:35:02;;;;;;;3.92;1.20;;;;;;;10.83;100.00;100529.28;5060513;28;20075;-56
2023/06/10 03:37:33;;;;;;;2.08;1.20;;;;;;;10.76;100.00;100510.22;5049889;28;20090;-56
2023/06/10 03:40:06;;;;;;;1.50;1.05;;;;;;;10.69;100.00;100519.00;5062463;28;20052;-56
2023/06/10 03:42:37;;;;;;;3.15;1.30;;;;;;;10.64;100.00;100518.22;5051136;28;20059;-55
2023/06/10 03:45:09;;;;;;;1.40;1.23;;;;;;;10.66;100.00;100526.91;5061606;28;20207;-57
2023/06/10 03:47:43;;;;;;;7.93;1.88;;;;;;;10.72;100.00;100529.41;5051372;28;20446;-57
2023/06/10 03:50:13;;;;;;;4.70;1.15;;;;;;;10.79;100.00;100525.00;5058226;28;20056;-56
2023/06/10 03:52:45;;;;;;;2.28;1.40;;;;;;;10.89;100.00;100538.81;5050753;28;20060;-55
2023/06/10 03:55:18;;;;;;;1.80;1.40;;;;;;;10.97;100.00;100536.94;5062483;28;20138;-55
2023/06/10 03:57:48;;;;;;;1.85;1.48;;;;;;;11.08;100.00;100529.81;5051181;28;20068;-56
2023/06/10 04:00:21;;;;;;;3.00;1.50;;;;;;;11.10;100.00;100527.19;5061705;28;20052;-56
2023/06/10 04:02:52;;;;;;;1.48;1.30;;;;;;;11.13;100.00;100528.00;5049456;28;20053;-57
2023/06/10 04:05:23;;;;;;;1.65;1.40;;;;;;;10.32;100.00;100391.47;5061709;28;20482;-57
2023/06/10 04:07:53;;;;;;;3.00;1.60;;;;;;;11.17;100.00;100534.06;5051383;28;20056;-55
2023/06/10 04:10:26;;;;;;;1.60;1.50;;;;;;;10.92;100.00;100489.09;5062257;28;20059;-57
2023/06/10 04:12:56;;;;;;;2.80;1.85;;;;;;;11.12;100.00;100526.25;5050842;28;20056;-56
2023/06/10 04:15:27;;;;;;;3.22;1.83;;;;;;;11.10;100.00;100525.41;5061427;28;20048;-55
2023/06/10 04:17:58;;;;;;;1.98;1.58;;;;;;;10.99;100.00;100519.50;5050366;28;20062;-56
2023/06/10 04:20:29;;;;;;;2.50;1.67;;;;;;;10.92;100.00;100512.63;5061018;28;20055;-54
2023/06/10 04:23:01;;;;;;;1.85;1.40;;;;;;;10.96;100.00;100524.78;5048564;28;20056;-56
2023/06/10 04:25:33;;;;;;;2.78;1.52;;;;;;;10.99;100.00;100524.72;5051570;28;20179;-55
2023/06/10 04:28:04;;;;;;;2.38;1.40;;;;;;;10.97;100.00;100521.25;5059533;28;20056;-56
2023/06/10 04:30:34;;;;;;;2.30;1.50;;;;;;;10.74;100.00;100504.13;5050245;28;20059;-57
2023/06/10 04:33:08;;;;;;;1.80;1.50;;;;;;;10.88;100.00;100521.38;5061313;28;20549;-57
2023/06/10 04:35:38;;;;;;;1.88;1.25;;;;;;;10.87;100.00;100524.88;5050263;28;20120;-55
2023/06/10 04:38:09;;;;;;;1.95;1.40;;;;;;;10.88;100.00;100522.22;5060807;28;20136;-56
2023/06/10 04:40:44;;;;;;;3.75;1.70;;;;;;;10.84;100.00;100511.88;5050092;28;20052;-56
2023/06/10 04:43:15;;;;;;;1.85;1.50;;;;;;;10.97;100.00;100521.25;5060388;28;20098;-56
2023/06/10 04:45:46;;;;;;;2.63;1.90;;;;;;;10.97;100.00;100514.28;5050356;28;20087;-55
2023/06/10 04:48:17;;;;;;;2.47;1.67;;;;;;;10.95;100.00;100512.56;5060761;28;20055;-55
2023/06/10 04:50:47;;;;;;;2.13;1.67;;;;;;;10.90;100.00;100514.38;5050392;28;20063;-55
2023/06/10 04:53:18;;;;;;;6.13;1.80;;;;;;;11.03;100.00;100531.63;5057585;28;20098;-55
2023/06/10 04:55:50;;;;;;;3.58;2.10;;;;;;;11.07;100.00;100533.31;5050196;28;20066;-56
2023/06/10 04:58:21;;;;;;;4.22;3.05;;;;;;;11.17;100.00;100527.06;5060811;28;20052;-57
2023/06/10 05:00:51;;;;;;;2.38;1.80;;;;;;;11.22;100.00;100522.63;5049617;28;20054;-56
2023/06/10 05:03:22;;;;;;;2.72;1.90;;;;;;;11.26;100.00;100512.09;5059826;28;21271;-55
2023/06/10 05:05:53;;;;;;;1.50;1.40;;;;;;;11.31;100.00;100505.09;5049532;28;20079;-57
2023/06/10 05:08:23;;;;;;;2.10;1.63;;;;;;;11.30;100.00;100505.94;5059953;28;20047;-55
2023/06/10 05:10:56;;;;;;;2.78;1.80;;;;;;;11.28;100.00;100499.88;5049960;28;20052;-56
2023/06/10 05:13:27;;;;;;;1.88;1.55;;;;;;;11.30;100.00;100492.88;5059997;28;20577;-56
2023/06/10 05:15:57;;;;;;;3.03;1.67;;;;;;;11.33;100.00;100500.66;5049578;28;20727;-56
2023/06/10 05:18:28;;;;;;;1.80;1.58;;;;;;;11.29;100.00;100488.53;5058626;28;20052;-56
2023/06/10 05:20:59;;;;;;;1.67;1.58;;;;;;;11.28;100.00;100484.19;5048640;28;20070;-57
2023/06/10 05:23:29;;;;;;;1.95;1.75;;;;;;;11.32;100.00;100485.88;5060200;28;20052;-57
2023/06/10 05:26:02;;;;;;;1.58;1.48;;;;;;;11.26;100.00;100470.25;5049629;28;20060;-57
2023/06/10 05:28:32;;;;;;;2.65;1.65;;;;;;;11.30;100.00;100482.41;5049078;28;20134;-56
2023/06/10 05:31:03;;;;;;;1.85;1.40;;;;;;;11.33;100.00;100477.13;5060415;28;20051;-57
2023/06/10 05:33:34;;;;;;;2.47;1.33;;;;;;;11.15;100.00;100447.75;5049022;28;20059;-57
2023/06/10 05:36:05;;;;;;;3.72;1.52;;;;;;;11.38;100.00;100485.75;5058465;28;20052;-58
2023/06/10 05:38:35;;;;;;;3.58;1.85;;;;;;;11.40;100.00;100478.75;5048740;28;20068;-57
2023/06/10 05:41:07;;;;;;;2.53;1.60;;;;;;;11.41;100.00;100475.28;5060103;28;20136;-56
2023/06/10 05:43:38;;;;;;;1.52;1.30;;;;;;;11.39;100.00;100477.03;5045613;28;20489;-55
2023/06/10 05:46:09;;;;;;;2.78;1.40;;;;;;;11.36;100.00;100466.63;5060081;28;20078;-57
2023/06/10 05:48:39;;;;;;;2.55;1.77;;;;;;;11.48;100.00;100476.00;5049000;28;20382;-57
2023/06/10 05:51:10;;;;;;;1.92;1.58;;;;;;;11.41;100.00;100472.66;5058478;28;20051;-57
2023/06/10 05:53:41;;;;;;;3.67;1.55;;;;;;;11.46;100.00;100478.66;5048002;28;20062;-57
2023/06/10 05:56:13;;;;;;;2.88;1.33;;;;;;;11.48;100.00;100476.88;5059107;28;20109;-57
2023/06/10 05:58:44;;;;;;;3.08;1.52;;;;;;;11.44;100.00;100469.97;5048565;28;20059;-57
2023/06/10 06:01:14;;;;;;;1.38;1.27;;;;;;;11.45;100.00;100471.69;5059411;28;20052;-57
2023/06/10 06:03:45;;;;;;;3.28;1.40;;;;;;;11.47;100.00;100469.91;5047191;28;20048;-57
2023/06/10 06:06:16;;;;;;;3.00;1.63;;;;;;;11.51;100.00;100470.75;5059253;28;20055;-56
2023/06/10 06:08:46;;;;;;;2.08;1.40;;;;;;;11.51;100.00;100468.13;5049019;28;20059;-57
2023/06/10 06:11:19;;;;;;;4.15;1.60;;;;;;;11.52;100.00;100468.09;5059090;28;20116;-56
2023/06/10 06:13:50;;;;;;;1.60;1.50;;;;;;;11.57;100.00;100465.41;5048873;28;20059;-56
2023/06/10 06:16:22;;;;;;;1.75;1.52;;;;;;;11.56;100.00;100468.91;5059289;28;20134;-56
2023/06/10 06:18:53;;;;;;;3.65;1.30;;;;;;;11.47;100.00;100464.69;5025338;28;20658;-56
2023/06/10 06:21:23;;;;;;;1.85;1.60;;;;;;;11.49;100.00;100470.75;5055630;28;20460;-55
2023/06/10 06:23:54;;;;;;;2.53;1.40;;;;;;;11.52;100.00;100467.22;5048438;28;20044;-55
2023/06/10 06:26:26;;;;;;;2.28;1.58;;;;;;;11.51;100.00;100471.59;5059413;28;20056;-57
2023/06/10 06:28:57;;;;;;;1.20;1.10;;;;;;;11.57;100.00;100471.50;5048847;28;20070;-57
2023/06/10 06:31:28;;;;;;;1.55;1.20;;;;;;;11.52;100.00;100457.63;5059099;28;20482;-56
2023/06/10 06:33:58;;;;;;;1.63;1.33;;;;;;;11.40;100.00;100431.66;5048005;28;20059;-56
2023/06/10 06:36:30;;;;;;;1.23;1.10;;;;;;;11.63;100.00;100470.50;5057483;28;20052;-56
2023/06/10 06:39:00;;;;;;;1.25;1.05;;;;;;;11.64;100.00;100462.66;5047703;28;20147;-55
2023/06/10 06:41:32;;;;;;;1.52;1.13;;;;;;;11.70;100.00;100459.03;5054431;28;20047;-57
2023/06/10 06:44:03;;;;;;;2.33;1.40;;;;;;;11.76;100.00;100460.72;5058529;28;20048;-56
2023/06/10 06:46:34;;;;;;;2.80;1.50;;;;;;;11.72;100.00;100459.03;5047307;28;20052;-56
2023/06/10 06:49:05;;;;;;;3.15;1.55;;;;;;;11.70;100.00;100466.03;5059002;28;20044;-57
2023/06/10 06:51:37;;;;;;;2.08;1.60;;;;;;;11.65;100.00;100459.13;5045945;28;20052;-55
2023/06/10 06:54:07;;;;;;;4.30;2.10;;;;;;;11.60;100.00;100455.72;5057891;28;20616;-57
2023/06/10 06:56:39;;;;;;;10.27;6.30;;;;;;;11.56;100.00;100459.31;5046438;28;20051;-57
2023/06/10 06:59:10;;;;;;;3.20;2.60;;;;;;;11.50;100.00;100467.25;5057027;28;20109;-57
2023/06/10 07:01:41;;;;;;;2.30;1.98;;;;;;;11.43;100.00;100463.88;5046450;28;20063;-56
2023/06/10 07:04:11;;;;;;;28.23;14.32;;;;;;;11.44;100.00;100464.75;5059298;28;20462;-57
2023/06/10 07:06:42;;;;;;;3.00;2.70;;;;;;;11.40;100.00;100463.91;5050068;28;20093;-57
2023/06/10 07:09:13;;;;;;;4.55;2.95;;;;;;;11.41;100.00;100470.03;5062301;28;20055;-56
2023/06/10 07:11:45;;;;;;;2.78;2.40;;;;;;;11.42;100.00;100466.53;5052189;28;20082;-54
2023/06/10 07:14:16;;;;;;;2.25;2.00;;;;;;;11.39;100.00;100466.56;5062666;28;20055;-56
2023/06/10 07:16:48;;;;;;;6.40;2.00;;;;;;;11.34;100.00;100463.19;5052623;28;20470;-56
2023/06/10 07:19:19;;;;;;;1.92;1.55;;;;;;;11.31;100.00;100463.22;5063248;28;20059;-57
2023/06/10 07:21:49;;;;;;;2.85;1.75;;;;;;;11.29;100.00;100467.63;5052098;28;20595;-56
2023/06/10 07:24:21;;;;;;;3.92;2.10;;;;;;;11.23;100.00;100455.47;5062289;28;20146;-57
2023/06/10 07:26:53;;;;;;;3.67;1.90;;;;;;;11.18;100.00;100452.97;5051340;28;20050;-57
2023/06/10 07:29:23;;;;;;;4.90;1.80;;;;;;;11.11;100.00;100446.09;5061626;28;20516;-55
2023/06/10 07:31:54;;;;;;;2.28;1.50;;;;;;;11.21;100.00;100452.91;5051467;28;20097;-56
2023/06/10 07:34:25;;;;;;;1.73;1.40;;;;;;;11.27;100.00;100456.31;5062687;28;20062;-56
2023/06/10 07:36:57;;;;;;;2.58;1.10;;;;;;;11.19;100.00;100459.91;5050743;28;21343;-57
2023/06/10 07:39:28;;;;;;;3.70;1.48;;;;;;;11.09;100.00;100458.31;5060993;28;20059;-57
2023/06/10 07:42:00;;;;;;;1.52;1.40;;;;;;;11.07;100.00;100452.25;5051121;28;20506;-55
2023/06/10 07:44:31;;;;;;;2.50;1.15;;;;;;;10.60;100.00;100380.63;5056181;28;20048;-57
2023/06/10 07:47:02;;;;;;;1.25;1.15;;;;;;;10.98;100.00;100449.75;5060942;28;20084;-56
2023/06/10 07:49:33;;;;;;;3.15;1.30;;;;;;;11.03;100.00;100458.41;5050901;28;20059;-55
2023/06/10 07:52:03;;;;;;;1.48;1.30;;;;;;;11.01;100.00;100449.75;5061705;28;20123;-57
2023/06/10 07:54:34;;;;;;;1.48;1.10;;;;;;;10.95;100.00;100452.44;5050449;28;20080;-56
2023/06/10 07:57:08;;;;;;;2.45;0.93;;;;;;;10.94;100.00;100448.09;5060990;28;20060;-56
2023/06/10 07:59:38;;;;;;;1.10;1.00;;;;;;;10.92;100.00;100449.88;5050637;28;20117;-56
2023/06/10 08:02:09;;;;;;;1.20;1.10;;;;;;;10.86;100.00;100439.50;5061235;28;20048;-56
2023/06/10 08:04:40;;;;;;;2.90;1.00;;;;;;;10.92;100.00;100453.34;5050116;28;20102;-57
2023/06/10 08:07:10;;;;;;;2.35;1.20;;;;;;;10.90;100.00;100451.63;5061106;28;20043;-57
2023/06/10 08:09:41;;;;;;;1.42;1.20;;;;;;;10.93;100.00;100456.81;5048528;28;20155;-57
2023/06/10 08:12:13;;;;;;;3.67;1.10;;;;;;;10.86;100.00;100460.41;5060714;28;20487;-55
2023/06/10 08:14:44;;;;;;;1.35;1.13;;;;;;;10.85;100.00;100453.47;5049316;28;20051;-57
2023/06/10 08:17:14;;;;;;;2.15;1.10;;;;;;;10.85;100.00;100448.22;5061132;28;20657;-56
2023/06/10 08:19:45;;;;;;;3.38;1.10;;;;;;;10.85;100.00;100453.47;5050389;28;20624;-55
2023/06/10 08:22:16;;;;;;;1.63;1.00;;;;;;;10.79;100.00;100450.03;5061847;28;20068;-55
2023/06/10 08:24:47;;;;;;;1.17;1.00;;;;;;;10.78;100.00;100443.09;5050956;28;20363;-56
2023/06/10 08:27:19;;;;;;;0.88;0.88;;;;;;;10.84;100.00;100446.50;5061593;28;20088;-56
2023/06/10 08:29:50;;;;;;;4.10;0.90;;;;;;;10.83;100.00;100455.22;5050468;28;20141;-55
2023/06/10 08:32:21;;;;;;;3.25;1.00;;;;;;;10.84;100.00;100456.97;5060837;28;20059;-55
2023/06/10 08:34:51;;;;;;;1.10;1.00;;;;;;;10.80;100.00;100449.16;5050228;28;20380;-56
2023/06/10 08:37:22;;;;;;;5.07;1.30;;;;;;;10.82;100.00;100453.50;5061431;28;20135;-57
2023/06/10 08:39:53;;;;;;;2.67;1.65;;;;;;;10.84;100.00;100452.59;5050087;28;20125;-57
2023/06/10 08:42:30;;;;;;;4.22;0.90;;;;;;;10.29;100.00;100368.00;5061135;28;20105;-56
2023/06/10 08:45:02;;;;;;;1.77;1.10;;;;;;;10.76;100.00;100450.09;5037206;28;20063;-55
2023/06/10 08:47:36;;;;;;;2.85;1.00;;;;;;;10.70;100.00;100429.25;5030163;28;20080;-57
2023/06/10 08:50:07;;;;;;;3.25;1.20;;;;;;;10.70;100.00;100450.16;5040990;28;20072;-56
2023/06/10 08:52:44;;;;;;;2.45;1.00;;;;;;;10.30;100.00;100371.47;5029790;28;20059;-56
2023/06/10 08:55:20;;;;;;;2.13;1.25;;;;;;;10.43;100.00;100393.91;5041076;28;20179;-57
2023/06/10 08:57:52;;;;;;;4.10;1.50;;;;;;;10.66;100.00;100430.22;5030042;28;20065;-54
2023/06/10 09:00:24;;;;;;;1.88;1.10;;;;;;;10.53;100.00;100415.56;5036759;28;20137;-57
2023/06/10 09:02:55;;;;;;;1.95;1.25;;;;;;;10.63;100.00;100426.75;5024332;28;20755;-57
2023/06/10 09:05:31;;;;;;;1.13;1.02;;;;;;;10.60;100.00;100424.19;5039695;28;20097;-57
2023/06/10 09:08:08;;;;;;;2.38;1.40;;;;;;;10.59;100.00;100410.28;5041037;28;20052;-58
2023/06/10 09:10:40;;;;;;;2.65;1.20;;;;;;;10.58;100.00;100421.59;5040725;28;20106;-57
2023/06/10 09:13:15;;;;;;;1.98;1.40;;;;;;;10.57;100.00;100419.88;5051492;28;20049;-58
2023/06/10 09:15:47;;;;;;;2.00;1.42;;;;;;;10.58;100.00;100421.59;5039910;28;20052;-55
2023/06/10 09:18:20;;;;;;;1.92;1.33;;;;;;;10.54;100.00;100412.09;5051026;28;20063;-57
2023/06/10 09:20:51;;;;;;;1.67;1.25;;;;;;;10.52;100.00;100424.31;5041059;28;20140;-58
2023/06/10 09:23:24;;;;;;;2.97;1.40;;;;;;;10.54;100.00;100412.09;5050395;28;20056;-57
2023/06/10 09:25:59;;;;;;;1.75;1.40;;;;;;;10.44;100.00;100405.25;5030249;28;20430;-58
2023/06/10 09:28:32;;;;;;;2.42;1.30;;;;;;;10.51;100.00;100418.22;5039938;28;20071;-57
2023/06/10 09:31:08;;;;;;;1.40;1.30;;;;;;;10.44;100.00;100418.31;5050485;28;20079;-57
2023/06/10 09:33:40;;;;;;;2.97;1.60;;;;;;;10.49;100.00;100429.56;5048571;28;20044;-57
2023/06/10 09:36:11;;;;;;;3.47;2.70;;;;;;;10.50;100.00;100431.28;5059872;28;20048;-58
2023/06/10 09:38:42;;;;;;;2.83;1.80;;;;;;;10.29;100.00;100407.19;5048420;28;20397;-58
2023/06/10 09:41:26;;;;;;;2.10;1.90;;;;;;;10.32;100.00;100422.81;5059147;28;20048;-57
2023/06/10 09:44:03;;;;;;;4.18;2.35;;;;;;;10.17;100.00;100401.22;5048614;28;20629;-57
2023/06/10 09:46:38;;;;;;;3.00;2.20;;;;;;;10.32;100.00;100442.84;5048684;28;20062;-58
2023/06/10 09:49:11;;;;;;;5.07;3.30;;;;;;;10.33;100.00;100440.22;5060120;28;20059;-58
2023/06/10 09:51:53;;;;;;;8.48;2.53;;;;;;;10.36;100.00;100440.19;5047945;28;20076;-57
2023/06/10 09:54:25;;;;;;;6.82;2.63;;;;;;;10.28;100.00;100426.38;5057111;28;20113;-57
2023/06/10 09:56:59;;;;;;;22.13;3.33;;;;;;;10.28;100.00;100434.19;5036573;28;20510;-56
2023/06/10 09:59:34;;;;;;;15.93;4.43;;;;;;;10.28;100.00;100442.03;5037149;28;20101;-57
2023/06/10 10:02:06;;;;;;;4.60;4.13;;;;;;;10.29;100.00;100437.66;5038837;28;20056;-58
2023/06/10 10:04:39;;;;;;;3.45;3.15;;;;;;;10.24;100.00;100435.06;5028621;28;20059;-58
2023/06/10 10:07:11;;;;;;;3.20;2.90;;;;;;;10.32;100.00;100438.47;5038771;28;20093;-57
2023/06/10 10:09:44;;;;;;;9.93;4.07;;;;;;;10.32;100.00;100437.63;5028717;28;20143;-57
2023/06/10 10:12:18;;;;;;;4.85;3.42;;;;;;;10.33;100.00;100440.22;5039398;28;20052;-56
2023/06/10 10:14:54;;;;;;;3.97;3.25;;;;;;;10.35;100.00;100433.22;5028573;28;20155;-56
2023/06/10 10:17:27;;;;;;;4.97;3.05;;;;;;;10.18;100.00;100398.56;5037481;28;20080;-57
2023/06/10 10:20:06;;;;;;;6.38;3.45;;;;;;;10.42;100.00;100433.16;5024325;28;20072;-57
2023/06/10 10:22:40;;;;;;;4.55;3.67;;;;;;;10.38;100.00;100434.91;5037507;28;20056;-56
2023/06/10 10:25:15;;;;;;;4.28;3.35;;;;;;;10.38;100.00;100431.44;5059460;28;20058;-57
2023/06/10 10:27:52;;;;;;;5.68;3.83;;;;;;;10.25;100.00;100417.66;5048155;28;20047;-56
2023/06/10 10:30:27;;;;;;;9.77;4.22;;;;;;;10.38;100.00;100426.22;5058740;28;20135;-56
2023/06/10 10:33:03;;;;;;;5.80;3.80;;;;;;;10.07;100.00;100390.03;5031857;28;20060;-55
2023/06/10 10:35:41;;;;;;;6.20;3.50;;;;;;;9.89;100.00;100365.00;5039202;28;20540;-57
2023/06/10 10:38:13;;;;;;;5.60;3.63;;;;;;;10.32;100.00;100437.63;5049295;28;20048;-57
2023/06/10 10:40:47;;;;;;;4.28;3.47;;;;;;;10.26;100.00;100435.94;5038295;28;20147;-56
2023/06/10 10:43:20;;;;;;;3.42;3.13;;;;;;;10.38;100.00;100447.13;5049812;28;20149;-56
2023/06/10 10:46:03;;;;;;;5.20;3.60;;;;;;;10.36;100.00;100440.19;5039310;28;20049;-56
2023/06/10 10:48:40;;;;;;;3.60;3.30;;;;;;;10.27;100.00;100411.53;5039239;28;20062;-58
2023/06/10 10:51:13;;;;;;;6.07;3.28;;;;;;;10.45;100.00;100438.31;5050143;28;20040;-58
2023/06/10 10:53:46;;;;;;;3.72;3.35;;;;;;;10.50;100.00;100447.81;5039417;28;20055;-57
2023/06/10 10:56:20;;;;;;;4.25;3.58;;;;;;;10.52;100.00;100455.66;5048746;28;20048;-57
2023/06/10 10:59:06;;;;;;;5.30;3.63;;;;;;;10.50;100.00;100463.50;5037970;28;20064;-57
2023/06/10 11:01:46;;;;;;;4.82;3.60;;;;;;;10.49;100.00;100471.38;5038614;28;20053;-57
2023/06/10 11:04:21;;;;;;;5.07;3.75;;;;;;;10.42;100.00;100465.34;5049392;28;20105;-57
2023/06/10 11:06:56;;;;;;;5.32;3.97;;;;;;;10.42;100.00;100464.50;5038647;28;21445;-57
2023/06/10 11:09:31;;;;;;;7.07;4.30;;;;;;;10.34;100.00;100457.63;5047289;28;20044;-58
2023/06/10 11:12:03;;;;;;;5.10;4.25;;;;;;;10.40;100.00;100472.34;5019129;28;20053;-57
2023/06/10 11:14:35;;;;;;;12.88;4.43;;;;;;;10.43;100.00;100468.81;5027314;28;20054;-57
2023/06/10 11:17:21;;;;;;;6.05;4.78;;;;;;;10.44;100.00;100479.25;5048904;28;20135;-56
2023/06/10 11:19:52;;;;;;;6.78;5.25;;;;;;;10.46;100.00;100472.28;5039185;28;20058;-58
2023/06/10 11:22:24;;;;;;;7.50;5.55;;;;;;;10.49;100.00;100467.00;5049562;28;20066;-57
2023/06/10 11:24:59;;;;;;;8.43;5.60;;;;;;;10.51;100.00;100474.84;5048022;28;20135;-58
2023/06/10 11:27:40;;;;;;;7.55;5.70;;;;;;;10.54;100.00;100480.03;5058225;28;20068;-57
2023/06/10 11:30:27;;;;;;;8.13;6.03;;;;;;;10.56;100.00;100473.88;5048675;28;20063;-57
2023/06/10 11:33:01;;;;;;;8.45;6.97;;;;;;;10.24;100.00;100416.78;5021797;28;20062;-57
2023/06/10 11:35:35;;;;;;;13.68;10.52;;;;;;;10.60;100.00;100474.69;5027327;28;20051;-57
2023/06/10 11:38:07;;;;;;;8.38;6.68;;;;;;;10.62;100.00;100478.16;5048409;28;20048;-57
2023/06/10 11:40:40;;;;;;;9.90;6.43;;;;;;;9.87;100.00;100351.97;5038252;28;20145;-58
2023/06/10 11:43:12;;;;;;;15.15;10.15;;;;;;;10.63;100.00;100479.03;5048393;28;20553;-58